TMW weather

Tamworth Airport
Tamworth, New South Wales, Australia

Public forecast

Using degrees Celsius for public forecast. Weather courtesy of forecast.io.

METAR (pilot weather report)

Retrieved 2018/09/22 16:30 UTC (28 minutes ago):

YSTW 221630Z AUTO 15001KT 9999 // NCD 10/00 Q1024 RF00.0/000.0

TAF (pilot weather forecast)

Retrieved 2018/09/22 12:36 UTC (4 hours ago):

TAF YSTW 221049Z 2212/2306 VRB03KT CAVOK FM230000 20012KT CAVOK